Accomac, Virginia
Current Conditions -  °F | °C
As of 8:55 AM on Saturday 01 Nov 2014 (Local Time) from KMFV Reporting Station
Overcast Overcast  
Wind Chill: 52°   Ceiling: 900
Heat Index: 52°   Visibility: 10mi
Dew Point: 46°   Wind: 13mph
Humidity: 82%   Direction: 360°N
Pressure: 29.68"   Gusts: 18mph
Location:  37.72°N, 75.67°W
Report Text: KMFV 011255Z AUTO 36011G16KT 10SM OVC009 11/08 A2968 RMK AO2
Loading
Personal Weather Stations






























Interactive Weather Map
Tropical Storm Tracking
New forecast layout! Learn more

10-Day Weather Forecast

Advertisements
Track Severe Weather on mobile